Time;durP1;ratioP1;P1;durP2;ratioP2;P2;SDS_P1;SDS_P2;PMS_P1;PMS_P2;Temp;Humidity;BMP_temperature;BMP_pressure;BME280_temperature;BME280_humidity;BME280_pressure;Samples;Min_cycle;Max_cycle;Signal;HPM_P1;HPM_P2
2023/06/15 00:02:15;;;;;;;2.00;1.90;;;23.50;42.30;;;;;;5037064;28;20226;-68
2023/06/15 00:04:41;;;;;;;1.60;1.50;;;23.50;42.30;;;;;;5036226;28;20464;-68
2023/06/15 00:07:07;;;;;;;1.90;1.80;;;23.50;42.30;;;;;;5038981;28;20465;-68
2023/06/15 00:09:32;;;;;;;1.80;1.70;;;23.50;42.30;;;;;;5036892;28;20223;-68
2023/06/15 00:11:58;;;;;;;1.80;1.70;;;23.50;42.30;;;;;;5038890;28;20240;-68
2023/06/15 00:14:23;;;;;;;1.90;1.80;;;23.50;42.30;;;;;;5048520;28;20238;-68
2023/06/15 00:16:52;;;;;;;1.77;1.67;;;23.50;42.30;;;;;;5034683;28;20210;-68
2023/06/15 00:19:21;;;;;;;1.90;1.80;;;23.50;42.30;;;;;;5036200;28;20234;-68
2023/06/15 00:21:48;;;;;;;2.10;2.00;;;23.50;42.30;;;;;;5040726;28;20447;-68
2023/06/15 00:24:16;;;;;;;1.90;1.80;;;23.50;42.30;;;;;;5035713;28;20564;-68
2023/06/15 00:26:43;;;;;;;1.80;1.70;;;23.50;42.30;;;;;;5034948;28;20451;-68
2023/06/15 00:29:09;;;;;;;1.77;1.67;;;23.50;42.30;;;;;;5037188;28;20997;-68
2023/06/15 00:31:35;;;;;;;1.77;1.67;;;23.50;42.30;;;;;;5038251;28;20456;-68
2023/06/15 00:34:01;;;;;;;1.80;1.70;;;23.50;42.30;;;;;;5035455;28;20909;-68
2023/06/15 00:36:26;;;;;;;2.13;2.03;;;23.50;42.30;;;;;;5037347;28;20904;-68
2023/06/15 00:38:52;;;;;;;2.10;2.00;;;23.50;42.30;;;;;;5038320;28;20240;-68
2023/06/15 00:41:18;;;;;;;1.90;1.80;;;23.50;42.30;;;;;;5037925;28;20207;-68
2023/06/15 00:43:43;;;;;;;1.80;1.70;;;23.50;42.30;;;;;;5037861;28;20220;-68
2023/06/15 00:46:10;;;;;;;2.10;2.00;;;23.50;42.30;;;;;;5039984;28;20218;-68
2023/06/15 00:48:36;;;;;;;1.70;1.60;;;23.50;42.30;;;;;;5040064;28;20218;-68
2023/06/15 00:51:03;;;;;;;1.83;1.73;;;23.50;42.30;;;;;;5037980;28;20950;-68
2023/06/15 00:53:29;;;;;;;2.00;1.90;;;23.50;42.30;;;;;;5036929;28;20299;-68
2023/06/15 00:55:55;;;;;;;1.90;1.80;;;23.50;42.30;;;;;;5040542;28;20439;-68
2023/06/15 00:58:21;;;;;;;2.30;2.20;;;23.50;42.30;;;;;;5038605;28;20217;-68
2023/06/15 01:00:48;;;;;;;1.93;1.83;;;23.50;42.30;;;;;;5037573;28;20546;-68
2023/06/15 01:03:15;;;;;;;2.10;1.83;;;23.50;42.30;;;;;;5034077;28;20218;-68
2023/06/15 01:05:44;;;;;;;1.93;1.83;;;23.50;42.30;;;;;;5037370;28;20459;-68
2023/06/15 01:08:11;;;;;;;1.90;1.80;;;23.50;42.30;;;;;;5036424;28;20502;-70
2023/06/15 01:10:37;;;;;;;1.63;1.53;;;23.50;42.30;;;;;;5036107;28;20465;-68
2023/06/15 01:13:05;;;;;;;1.77;1.67;;;23.50;42.30;;;;;;5035962;28;20471;-68
2023/06/15 01:15:31;;;;;;;1.77;1.67;;;23.50;42.30;;;;;;5035908;28;20834;-68
2023/06/15 01:18:02;;;;;;;2.53;1.87;;;23.50;42.30;;;;;;5038789;28;20514;-68
2023/06/15 01:20:39;;;;;;;1.80;1.70;;;23.50;42.30;;;;;;5036238;28;20845;-68
2023/06/15 01:23:36;;;;;;;1.90;1.80;;;23.50;42.30;;;;;;5035538;28;20516;-68
2023/06/15 01:26:06;;;;;;;1.90;1.80;;;23.50;42.30;;;;;;5034704;28;20799;-68
2023/06/15 01:28:34;;;;;;;1.80;1.70;;;23.50;42.30;;;;;;5036335;28;20546;-68
2023/06/15 01:31:01;;;;;;;2.10;2.00;;;23.50;42.30;;;;;;5032618;28;20455;-68
2023/06/15 01:33:27;;;;;;;1.93;1.83;;;23.50;42.40;;;;;;5037978;28;20471;-68
2023/06/15 01:35:53;;;;;;;2.20;2.10;;;23.50;42.30;;;;;;5034457;28;20590;-68
2023/06/15 01:38:24;;;;;;;2.70;2.07;;;23.50;42.30;;;;;;5035393;28;20498;-68
2023/06/15 01:40:51;;;;;;;1.90;1.80;;;23.50;42.40;;;;;;5033153;28;20226;-68
2023/06/15 01:43:20;;;;;;;2.00;1.90;;;23.50;42.40;;;;;;5032598;28;20492;-68
2023/06/15 01:45:46;;;;;;;1.80;1.70;;;23.50;42.50;;;;;;5036201;28;20454;-68
2023/06/15 01:48:12;;;;;;;2.00;1.90;;;23.50;42.50;;;;;;5036402;28;20592;-68
2023/06/15 01:50:40;;;;;;;1.77;1.67;;;23.50;42.50;;;;;;5035139;28;20486;-68
2023/06/15 01:53:06;;;;;;;1.70;1.60;;;23.50;42.50;;;;;;5034508;28;20451;-68
2023/06/15 01:55:32;;;;;;;1.80;1.70;;;23.50;42.60;;;;;;5036240;28;20474;-68
2023/06/15 01:57:57;;;;;;;1.87;1.77;;;23.50;42.50;;;;;;5035298;28;20226;-68
2023/06/15 02:00:24;;;;;;;2.20;2.10;;;23.50;42.50;;;;;;5033884;28;20225;-68
2023/06/15 02:02:50;;;;;;;1.87;1.77;;;23.50;42.50;;;;;;5034332;28;20358;-68
2023/06/15 02:05:17;;;;;;;1.90;1.80;;;23.50;42.50;;;;;;5027627;28;20458;-68
2023/06/15 02:07:42;;;;;;;2.00;1.90;;;23.50;42.50;;;;;;5036626;28;20451;-68
2023/06/15 02:10:08;;;;;;;2.10;2.00;;;23.50;42.60;;;;;;5032309;28;20452;-68
2023/06/15 02:12:34;;;;;;;1.80;1.70;;;23.50;42.50;;;;;;5036253;28;20253;-68
2023/06/15 02:15:01;;;;;;;1.90;1.80;;;23.50;42.50;;;;;;5036642;28;20508;-68
2023/06/15 02:17:30;;;;;;;1.90;1.80;;;23.50;42.50;;;;;;5035578;28;20244;-68
2023/06/15 02:19:56;;;;;;;1.80;1.70;;;23.50;42.50;;;;;;5036045;28;20585;-68
2023/06/15 02:22:22;;;;;;;1.80;1.70;;;23.50;42.50;;;;;;5036358;28;20551;-68
2023/06/15 02:24:48;;;;;;;1.70;1.60;;;23.50;42.60;;;;;;5036414;28;21084;-68
2023/06/15 02:27:14;;;;;;;1.83;1.73;;;23.50;42.50;;;;;;5035037;28;20458;-68
2023/06/15 02:29:40;;;;;;;1.80;1.70;;;23.50;42.60;;;;;;5038261;28;21249;-68
2023/06/15 02:32:05;;;;;;;1.77;1.67;;;23.50;42.60;;;;;;5035719;28;20221;-68
2023/06/15 02:34:32;;;;;;;1.80;1.70;;;23.50;42.60;;;;;;5035286;28;20556;-68
2023/06/15 02:36:58;;;;;;;1.70;1.60;;;23.50;42.60;;;;;;5038720;28;20228;-68
2023/06/15 02:39:24;;;;;;;1.90;1.80;;;23.50;42.60;;;;;;5033071;28;20466;-68
2023/06/15 02:41:50;;;;;;;1.77;1.67;;;23.50;42.60;;;;;;5030855;28;20465;-68
2023/06/15 02:44:15;;;;;;;1.70;1.60;;;23.50;42.60;;;;;;5037464;28;20228;-68
2023/06/15 02:46:42;;;;;;;1.90;1.80;;;23.50;42.60;;;;;;5037032;28;20308;-68
2023/06/15 02:49:08;;;;;;;2.00;1.90;;;23.50;42.60;;;;;;5033071;28;20514;-68
2023/06/15 02:51:34;;;;;;;1.60;1.50;;;23.50;42.60;;;;;;5040123;28;20508;-68
2023/06/15 02:54:00;;;;;;;2.03;1.80;;;23.50;42.60;;;;;;5040447;28;20230;-68
2023/06/15 02:56:29;;;;;;;2.13;2.03;;;23.50;42.70;;;;;;5042293;28;20465;-68
2023/06/15 02:58:54;;;;;;;2.00;1.90;;;23.50;42.60;;;;;;5039264;28;20268;-68
2023/06/15 03:01:23;;;;;;;1.90;1.80;;;23.50;42.60;;;;;;5040249;28;20451;-68
2023/06/15 03:03:52;;;;;;;2.00;1.90;;;23.50;42.70;;;;;;5038822;28;20240;-67
2023/06/15 03:06:18;;;;;;;1.70;1.60;;;23.50;42.70;;;;;;5039521;28;20459;-68
2023/06/15 03:08:44;;;;;;;2.03;1.93;;;23.50;42.70;;;;;;5041036;28;20448;-68
2023/06/15 03:11:10;;;;;;;1.90;1.80;;;23.40;42.70;;;;;;5038359;28;20458;-68
2023/06/15 03:13:36;;;;;;;1.70;1.60;;;23.50;42.60;;;;;;5040011;28;20454;-68
2023/06/15 03:16:06;;;;;;;1.87;1.77;;;23.50;42.70;;;;;;5036047;28;20768;-68
2023/06/15 03:18:32;;;;;;;1.90;1.80;;;23.50;42.70;;;;;;5041098;28;20218;-68
2023/06/15 03:20:58;;;;;;;1.80;1.70;;;23.50;42.80;;;;;;5040406;28;21044;-68
2023/06/15 03:23:24;;;;;;;1.70;1.60;;;23.50;42.70;;;;;;5040826;28;20210;-68
2023/06/15 03:25:51;;;;;;;1.90;1.80;;;23.50;42.80;;;;;;5034769;28;20685;-68
2023/06/15 03:28:24;;;;;;;2.23;2.03;;;23.50;42.80;;;;;;5041186;28;20512;-68
2023/06/15 03:30:53;;;;;;;1.70;1.60;;;23.50;42.70;;;;;;5032200;28;20495;-68
2023/06/15 03:33:22;;;;;;;1.97;1.87;;;23.50;42.70;;;;;;5039092;28;20467;-68
2023/06/15 03:35:49;;;;;;;1.93;1.83;;;23.50;42.70;;;;;;5041118;28;20497;-68
2023/06/15 03:38:18;;;;;;;2.20;2.10;;;23.40;42.60;;;;;;5038559;28;20524;-68
2023/06/15 03:40:43;;;;;;;2.13;1.90;;;23.50;42.70;;;;;;5041770;28;20467;-68
2023/06/15 03:43:13;;;;;;;1.90;1.80;;;23.40;42.60;;;;;;5036462;28;21041;-68
2023/06/15 03:45:39;;;;;;;2.00;1.90;;;23.50;42.70;;;;;;5038298;28;20226;-68
2023/06/15 03:48:05;;;;;;;1.80;1.70;;;23.40;42.60;;;;;;5038666;28;20542;-68
2023/06/15 03:50:31;;;;;;;1.90;1.70;;;23.40;42.70;;;;;;5033909;28;20453;-68
2023/06/15 03:52:56;;;;;;;1.90;1.80;;;23.50;42.70;;;;;;5037779;28;20238;-68
2023/06/15 03:55:22;;;;;;;2.10;2.00;;;23.40;42.60;;;;;;5038191;28;20252;-68
2023/06/15 03:57:47;;;;;;;3.10;1.87;;;23.40;42.60;;;;;;5041359;28;20840;-69
2023/06/15 04:00:13;;;;;;;1.73;1.63;;;23.40;42.50;;;;;;5034846;28;20234;-68
2023/06/15 04:02:40;;;;;;;2.07;1.97;;;23.40;42.50;;;;;;5031334;28;20223;-69
2023/06/15 04:05:06;;;;;;;2.00;1.90;;;23.40;42.50;;;;;;5041409;28;20755;-67
2023/06/15 04:07:31;;;;;;;2.00;1.90;;;23.40;42.50;;;;;;5040564;28;20443;-67
2023/06/15 04:09:57;;;;;;;1.70;1.60;;;23.40;42.50;;;;;;5033780;28;20253;-67
2023/06/15 04:12:23;;;;;;;2.10;2.00;;;23.40;42.40;;;;;;5039783;28;20219;-67
2023/06/15 04:14:48;;;;;;;1.97;1.87;;;23.40;42.30;;;;;;5036192;28;20641;-67
2023/06/15 04:17:15;;;;;;;2.37;2.27;;;23.50;42.40;;;;;;5031654;28;20602;-69
2023/06/15 04:19:40;;;;;;;2.00;1.90;;;23.50;42.30;;;;;;5044053;28;20257;-68
2023/06/15 04:22:06;;;;;;;1.97;1.87;;;23.50;42.30;;;;;;5043047;28;20518;-67
2023/06/15 04:24:32;;;;;;;2.20;2.10;;;23.50;42.30;;;;;;5040701;28;20230;-67
2023/06/15 04:26:57;;;;;;;2.40;2.30;;;23.50;42.30;;;;;;5034908;28;20226;-68
2023/06/15 04:29:23;;;;;;;2.20;2.10;;;23.50;42.30;;;;;;5037617;28;20219;-68
2023/06/15 04:31:55;;;;;;;2.00;1.90;;;23.50;42.30;;;;;;5041810;28;20206;-68
2023/06/15 04:34:22;;;;;;;2.10;2.00;;;23.50;42.30;;;;;;5033135;28;20775;-70
2023/06/15 04:36:48;;;;;;;2.20;2.10;;;23.50;42.30;;;;;;5037828;28;21041;-69
2023/06/15 04:39:14;;;;;;;2.10;2.00;;;23.50;42.30;;;;;;5038462;28;23212;-70
2023/06/15 04:41:40;;;;;;;2.20;2.10;;;23.50;42.30;;;;;;5027158;28;21065;-72
2023/06/15 04:44:06;;;;;;;1.83;1.73;;;23.50;42.30;;;;;;5021642;28;20467;-69
2023/06/15 04:46:32;;;;;;;2.20;2.10;;;23.50;42.30;;;;;;5039458;28;20226;-69
2023/06/15 04:48:58;;;;;;;2.30;2.10;;;23.50;42.30;;;;;;5034672;28;20218;-69
2023/06/15 04:51:24;;;;;;;2.00;1.90;;;23.50;42.30;;;;;;5036700;28;20450;-69
2023/06/15 04:53:49;;;;;;;2.47;2.37;;;23.50;42.30;;;;;;5040081;28;20467;-69
2023/06/15 04:56:15;;;;;;;1.93;1.83;;;23.50;42.30;;;;;;5035940;28;20226;-69
2023/06/15 04:58:41;;;;;;;2.10;2.00;;;23.60;42.40;;;;;;5036861;28;20235;-68
2023/06/15 05:01:07;;;;;;;2.20;2.10;;;23.50;42.30;;;;;;5037013;28;20238;-68
2023/06/15 05:03:35;;;;;;;2.00;1.90;;;23.50;42.30;;;;;;5036013;28;20769;-67
2023/06/15 05:06:01;;;;;;;2.90;2.20;;;23.50;42.30;;;;;;5036430;28;21051;-66
2023/06/15 05:08:26;;;;;;;1.80;1.70;;;23.50;42.30;;;;;;5036315;28;20462;-67
2023/06/15 05:10:52;;;;;;;2.10;1.90;;;23.50;42.30;;;;;;5031994;28;20309;-67
2023/06/15 05:13:17;;;;;;;1.90;1.80;;;23.50;42.30;;;;;;5037630;28;20221;-70
2023/06/15 05:15:43;;;;;;;2.10;2.00;;;23.50;42.30;;;;;;5039055;28;20221;-76
2023/06/15 05:18:08;;;;;;;1.87;1.77;;;23.50;42.30;;;;;;5035479;28;20224;-74
2023/06/15 05:20:34;;;;;;;2.10;2.00;;;23.50;42.30;;;;;;5027502;28;20229;-69
2023/06/15 05:22:59;;;;;;;2.23;1.90;;;23.50;42.30;;;;;;5033832;28;20381;-70
2023/06/15 05:25:25;;;;;;;2.27;2.07;;;23.50;42.30;;;;;;5034856;28;20618;-70
2023/06/15 05:27:51;;;;;;;2.20;2.10;;;23.50;42.30;;;;;;5030404;28;20660;-70
2023/06/15 05:30:16;;;;;;;1.97;1.87;;;23.50;42.30;;;;;;5034317;28;20230;-69
2023/06/15 05:32:42;;;;;;;2.10;2.00;;;23.50;42.30;;;;;;5040412;28;20558;-70
2023/06/15 05:35:08;;;;;;;2.10;2.00;;;23.50;42.30;;;;;;5041155;28;20669;-69
2023/06/15 05:37:35;;;;;;;3.00;2.37;;;23.50;42.30;;;;;;5037422;28;20781;-69
2023/06/15 05:40:02;;;;;;;1.90;1.80;;;23.50;42.30;;;;;;5040151;28;21041;-70
2023/06/15 05:42:28;;;;;;;2.77;2.13;;;23.50;42.30;;;;;;5036766;28;20541;-69
2023/06/15 05:44:53;;;;;;;2.10;2.00;;;23.50;42.30;;;;;;5054561;28;20462;-70
2023/06/15 05:47:19;;;;;;;2.00;1.90;;;23.50;42.30;;;;;;5038221;28;20455;-70
2023/06/15 05:49:45;;;;;;;2.50;2.30;;;23.50;42.30;;;;;;5040760;28;20241;-70
2023/06/15 05:52:10;;;;;;;2.20;2.10;;;23.50;42.30;;;;;;5037638;28;20558;-70
2023/06/15 05:54:36;;;;;;;2.47;2.37;;;23.50;42.30;;;;;;5038725;28;20226;-69
2023/06/15 05:57:01;;;;;;;2.30;2.20;;;23.50;42.30;;;;;;5038995;28;20234;-70
2023/06/15 05:59:28;;;;;;;2.00;1.90;;;23.50;42.30;;;;;;5038908;28;21268;-70
2023/06/15 06:01:54;;;;;;;2.40;2.30;;;23.50;42.30;;;;;;5040277;28;20217;-70
2023/06/15 06:04:20;;;;;;;3.10;1.80;;;23.50;42.30;;;;;;5029542;28;20467;-69
2023/06/15 06:06:45;;;;;;;2.17;2.07;;;23.50;42.30;;;;;;5039916;28;20449;-70
2023/06/15 06:09:11;;;;;;;2.00;1.90;;;23.50;42.30;;;;;;5034248;28;20279;-71
2023/06/15 06:11:37;;;;;;;2.20;2.10;;;23.50;42.30;;;;;;5040233;28;20703;-69
2023/06/15 06:14:02;;;;;;;2.50;2.40;;;23.50;42.30;;;;;;5031373;28;20439;-69
2023/06/15 06:16:28;;;;;;;2.10;2.00;;;23.50;42.30;;;;;;5033288;28;20214;-70
2023/06/15 06:18:53;;;;;;;2.60;2.40;;;23.50;42.30;;;;;;5037814;28;20213;-69
2023/06/15 06:21:19;;;;;;;2.40;2.20;;;23.50;42.30;;;;;;5040295;28;20294;-70
2023/06/15 06:23:44;;;;;;;2.00;1.90;;;23.50;42.30;;;;;;5035323;28;20225;-69
2023/06/15 06:26:10;;;;;;;2.23;2.13;;;23.50;42.30;;;;;;5040258;28;20264;-69
2023/06/15 06:28:36;;;;;;;2.43;2.23;;;23.50;42.30;;;;;;5045504;28;20908;-69
2023/06/15 06:31:01;;;;;;;2.20;2.10;;;23.50;42.30;;;;;;5046689;28;20368;-70
2023/06/15 06:33:27;;;;;;;2.40;2.30;;;23.50;42.30;;;;;;5043795;28;20229;-69
2023/06/15 06:35:52;;;;;;;2.33;2.23;;;23.50;42.30;;;;;;5045095;28;20227;-70
2023/06/15 06:38:18;;;;;;;2.20;2.10;;;23.50;42.30;;;;;;5046991;28;20275;-70
2023/06/15 06:40:44;;;;;;;2.40;2.20;;;23.50;42.30;;;;;;5045744;28;20257;-70
2023/06/15 06:43:10;;;;;;;2.17;2.07;;;23.50;42.30;;;;;;5045037;28;20213;-69
2023/06/15 06:45:35;;;;;;;2.47;2.37;;;23.50;42.30;;;;;;5042808;28;20221;-70
2023/06/15 06:48:01;;;;;;;2.13;1.93;;;23.50;42.30;;;;;;5044849;28;20451;-69
2023/06/15 06:50:26;;;;;;;2.40;2.20;;;23.50;42.30;;;;;;5045685;28;20576;-69
2023/06/15 06:52:52;;;;;;;2.30;2.20;;;23.50;42.30;;;;;;5045183;28;20249;-69
2023/06/15 06:55:17;;;;;;;2.27;2.17;;;23.50;42.30;;;;;;5045712;28;20237;-70
2023/06/15 06:57:43;;;;;;;2.00;1.90;;;23.50;42.30;;;;;;5047624;28;20230;-70
2023/06/15 07:00:10;;;;;;;2.20;2.10;;;23.50;42.30;;;;;;5042062;28;20244;-69
2023/06/15 07:02:36;;;;;;;2.10;1.90;;;23.50;42.30;;;;;;5043325;28;20666;-70
2023/06/15 07:05:01;;;;;;;2.00;1.90;;;23.50;42.30;;;;;;5046292;28;20450;-70
2023/06/15 07:07:27;;;;;;;2.23;2.13;;;23.50;42.30;;;;;;5043481;28;20233;-69
2023/06/15 07:09:52;;;;;;;2.30;2.20;;;23.60;42.40;;;;;;5047866;28;20212;-70
2023/06/15 07:12:18;;;;;;;2.00;1.90;;;23.60;42.40;;;;;;5046362;28;20229;-69
2023/06/15 07:14:43;;;;;;;2.13;2.03;;;23.60;42.40;;;;;;5043413;28;20304;-70
2023/06/15 07:17:09;;;;;;;2.27;2.17;;;23.50;42.30;;;;;;5046001;28;20217;-69
2023/06/15 07:19:34;;;;;;;2.23;2.13;;;23.50;42.30;;;;;;5043749;28;20230;-69
2023/06/15 07:22:00;;;;;;;2.20;2.10;;;23.50;42.30;;;;;;5041233;28;20225;-69
2023/06/15 07:24:26;;;;;;;1.90;1.80;;;23.60;42.40;;;;;;5031634;28;20704;-69
2023/06/15 07:26:51;;;;;;;2.10;2.00;;;23.60;42.40;;;;;;5040151;28;20236;-69
2023/06/15 07:29:17;;;;;;;2.00;1.90;;;23.50;42.30;;;;;;5040670;28;20218;-69
2023/06/15 07:31:42;;;;;;;2.07;1.87;;;23.50;42.30;;;;;;5046757;28;20225;-70
2023/06/15 07:34:08;;;;;;;2.10;2.00;;;23.60;42.40;;;;;;5045183;28;20246;-69
2023/06/15 07:36:34;;;;;;;2.10;2.00;;;23.50;42.30;;;;;;5042052;28;20724;-69
2023/06/15 07:39:00;;;;;;;1.90;1.80;;;23.60;42.40;;;;;;5041582;28;20485;-69
2023/06/15 07:41:25;;;;;;;2.10;2.00;;;23.60;42.40;;;;;;5041030;28;20471;-69
2023/06/15 07:43:51;;;;;;;2.13;2.03;;;23.60;42.40;;;;;;5035457;28;20217;-69
2023/06/15 07:46:16;;;;;;;1.90;1.80;;;23.60;42.40;;;;;;5035025;28;20775;-69
2023/06/15 07:48:42;;;;;;;1.90;1.80;;;23.60;42.40;;;;;;5038274;28;20356;-69
2023/06/15 07:51:07;;;;;;;2.20;2.10;;;23.60;42.40;;;;;;5042332;28;20311;-69
2023/06/15 07:53:33;;;;;;;1.73;1.63;;;23.60;42.40;;;;;;5042122;28;20244;-69
2023/06/15 07:55:59;;;;;;;1.90;1.80;;;23.50;42.30;;;;;;5041427;28;20229;-69
2023/06/15 07:58:24;;;;;;;1.80;1.70;;;23.60;42.40;;;;;;5040921;28;20230;-70
2023/06/15 08:00:50;;;;;;;2.30;2.20;;;23.60;42.40;;;;;;5036223;28;20857;-69
2023/06/15 08:03:15;;;;;;;3.47;2.17;;;23.60;42.40;;;;;;5040009;28;20230;-70
2023/06/15 08:05:41;;;;;;;3.10;1.87;;;23.60;42.40;;;;;;5040366;28;20222;-70
2023/06/15 08:08:06;;;;;;;1.83;1.73;;;23.60;42.40;;;;;;5042262;28;20335;-69
2023/06/15 08:10:32;;;;;;;2.17;2.07;;;23.60;42.40;;;;;;5035304;28;20677;-69
2023/06/15 08:12:58;;;;;;;1.80;1.70;;;23.60;42.40;;;;;;5038613;28;20251;-70
2023/06/15 08:15:23;;;;;;;2.10;2.00;;;23.60;42.40;;;;;;5035864;28;20222;-69
2023/06/15 08:17:49;;;;;;;2.37;2.27;;;23.60;42.40;;;;;;5038435;28;20462;-69
2023/06/15 08:20:15;;;;;;;1.97;1.87;;;23.60;42.40;;;;;;5036290;28;20380;-69
2023/06/15 08:22:41;;;;;;;2.20;2.07;;;23.60;42.40;;;;;;5037363;28;20692;-72
2023/06/15 08:25:09;;;;;;;2.20;2.10;;;23.60;42.40;;;;;;5043243;28;20632;-69
2023/06/15 08:27:35;;;;;;;1.90;1.80;;;23.60;42.40;;;;;;5034930;28;20451;-69
2023/06/15 08:30:01;;;;;;;1.80;1.70;;;23.60;42.40;;;;;;5044168;28;20474;-69
2023/06/15 08:32:26;;;;;;;2.07;1.97;;;23.60;42.40;;;;;;5035629;28;20493;-70
2023/06/15 08:34:52;;;;;;;1.93;1.83;;;23.60;42.40;;;;;;5039443;28;20252;-70
2023/06/15 08:37:17;;;;;;;4.23;1.80;;;23.60;42.40;;;;;;5039960;28;20287;-69
2023/06/15 08:39:43;;;;;;;1.87;1.77;;;23.60;42.40;;;;;;5042228;28;20234;-70
2023/06/15 08:42:08;;;;;;;2.33;2.13;;;23.60;42.40;;;;;;5031750;28;20722;-69
2023/06/15 08:44:34;;;;;;;2.10;1.90;;;23.60;42.40;;;;;;5039293;28;20838;-69
2023/06/15 08:47:02;;;;;;;2.17;2.07;;;23.60;42.40;;;;;;5036610;28;20642;-69
2023/06/15 08:49:28;;;;;;;2.37;2.20;;;23.60;42.40;;;;;;5037971;28;20724;-70
2023/06/15 08:51:56;;;;;;;1.90;1.80;;;23.60;42.40;;;;;;5035613;28;20507;-69
2023/06/15 08:54:27;;;;;;;2.03;1.87;;;23.60;42.40;;;;;;5036208;28;21032;-70
2023/06/15 08:56:53;;;;;;;1.60;1.50;;;23.60;42.40;;;;;;5040354;28;20478;-69
2023/06/15 08:59:18;;;;;;;2.00;1.90;;;23.60;42.40;;;;;;5039860;28;20447;-69
2023/06/15 09:01:44;;;;;;;2.03;1.93;;;23.60;42.40;;;;;;5036062;28;20681;-70
2023/06/15 09:04:10;;;;;;;2.13;2.03;;;23.60;42.40;;;;;;5037357;28;20691;-69
2023/06/15 09:06:36;;;;;;;1.90;1.80;;;23.60;42.40;;;;;;5039903;28;20416;-69
2023/06/15 09:09:03;;;;;;;2.10;2.00;;;23.60;42.40;;;;;;5037245;28;20240;-70
2023/06/15 09:11:28;;;;;;;2.10;2.00;;;23.60;42.40;;;;;;5030229;28;20363;-69
2023/06/15 09:13:54;;;;;;;2.10;2.00;;;23.60;42.40;;;;;;5040322;28;21102;-70
2023/06/15 09:16:20;;;;;;;2.00;1.90;;;23.70;42.50;;;;;;5036863;28;20225;-70
2023/06/15 09:18:47;;;;;;;1.83;1.73;;;23.70;42.50;;;;;;5038598;28;20218;-70
2023/06/15 09:21:14;;;;;;;1.83;1.73;;;23.70;42.50;;;;;;5040110;28;20261;-70
2023/06/15 09:23:46;;;;;;;2.53;2.33;;;23.70;42.50;;;;;;5038397;28;20443;-70
2023/06/15 09:26:28;;;;;;;2.00;1.90;;;23.70;42.50;;;;;;5037985;28;20559;-71
2023/06/15 09:28:56;;;;;;;1.83;1.73;;;23.70;42.50;;;;;;5037134;28;20463;-70
2023/06/15 09:31:35;;;;;;;1.80;1.70;;;23.70;42.50;;;;;;5040331;28;20880;-69
2023/06/15 09:34:05;;;;;;;2.30;2.20;;;23.70;42.50;;;;;;5037610;28;20480;-69
2023/06/15 09:36:41;;;;;;;1.80;1.70;;;23.70;42.50;;;;;;5038598;28;20453;-69
2023/06/15 09:39:11;;;;;;;2.07;1.97;;;23.70;42.50;;;;;;5039936;28;20972;-69
2023/06/15 09:42:00;;;;;;;1.90;1.80;;;23.70;42.50;;;;;;5040569;28;20478;-69
2023/06/15 09:44:26;;;;;;;1.90;1.80;;;23.70;42.50;;;;;;5035597;28;20463;-70
2023/06/15 09:46:54;;;;;;;2.00;1.90;;;23.60;42.40;;;;;;5039269;28;20451;-70
2023/06/15 09:49:25;;;;;;;2.00;1.90;;;23.70;42.50;;;;;;5031545;28;20459;-70
2023/06/15 09:51:51;;;;;;;1.90;1.80;;;23.60;42.40;;;;;;5035735;28;20467;-69
2023/06/15 09:54:24;;;;;;;2.33;2.23;;;23.60;42.40;;;;;;5031704;28;20821;-70
2023/06/15 09:56:51;;;;;;;2.10;2.00;;;23.70;42.50;;;;;;5037539;28;20495;-70
2023/06/15 09:59:18;;;;;;;1.87;1.77;;;23.60;42.50;;;;;;5037661;28;20855;-69
2023/06/15 10:01:55;;;;;;;1.90;1.80;;;23.60;42.40;;;;;;5039413;28;20821;-69
2023/06/15 10:04:25;;;;;;;2.10;2.00;;;23.60;42.40;;;;;;5036277;28;20451;-70
2023/06/15 10:07:00;;;;;;;1.60;1.50;;;23.60;42.40;;;;;;5037125;28;20538;-70
2023/06/15 10:09:29;;;;;;;1.70;1.60;;;23.60;42.40;;;;;;5036386;28;20477;-69
2023/06/15 10:12:05;;;;;;;1.70;1.60;;;23.60;42.40;;;;;;5039635;28;20451;-69
2023/06/15 10:14:49;;;;;;;1.90;1.80;;;23.60;42.40;;;;;;5033248;28;21504;-70
2023/06/15 10:17:16;;;;;;;1.90;1.80;;;23.60;42.40;;;;;;5029869;28;20447;-69
2023/06/15 10:19:46;;;;;;;2.00;1.90;;;23.60;42.40;;;;;;5038071;28;20993;-70
2023/06/15 10:22:19;;;;;;;1.80;1.70;;;23.60;42.40;;;;;;5037116;28;20471;-70
2023/06/15 10:24:45;;;;;;;1.93;1.83;;;23.70;42.50;;;;;;5040732;28;20454;-70
2023/06/15 10:27:11;;;;;;;1.70;1.60;;;23.60;42.40;;;;;;5039373;28;20446;-72
2023/06/15 10:29:51;;;;;;;1.93;1.83;;;23.60;42.40;;;;;;5039000;28;20450;-70
2023/06/15 10:32:33;;;;;;;2.10;2.00;;;23.70;42.50;;;;;;5039158;28;20202;-70
2023/06/15 10:35:07;;;;;;;1.90;1.80;;;23.70;42.50;;;;;;5038379;28;20470;-70
2023/06/15 10:37:41;;;;;;;1.90;1.80;;;23.70;42.50;;;;;;5038443;28;20440;-69
2023/06/15 10:40:22;;;;;;;2.10;2.00;;;23.70;42.50;;;;;;5040867;28;20454;-69
2023/06/15 10:42:49;;;;;;;2.13;2.03;;;23.70;42.50;;;;;;5039172;28;20458;-70
2023/06/15 10:45:31;;;;;;;2.40;2.30;;;23.60;42.40;;;;;;5038166;28;20467;-70
2023/06/15 10:47:58;;;;;;;1.70;1.60;;;23.70;42.50;;;;;;5032831;28;20458;-69
2023/06/15 10:50:25;;;;;;;1.83;1.73;;;23.70;42.50;;;;;;5039607;28;20534;-70
2023/06/15 10:52:51;;;;;;;1.80;1.70;;;23.60;42.40;;;;;;5036765;28;20509;-70
2023/06/15 10:55:22;;;;;;;1.80;1.70;;;23.70;42.50;;;;;;5037948;28;20454;-70
2023/06/15 10:57:48;;;;;;;1.73;1.63;;;23.60;42.40;;;;;;5032070;28;20256;-70
2023/06/15 11:00:26;;;;;;;2.03;1.93;;;23.60;42.40;;;;;;5040559;28;20474;-70
2023/06/15 11:02:58;;;;;;;1.70;1.60;;;23.70;42.50;;;;;;5036591;28;20222;-70
2023/06/15 11:05:24;;;;;;;1.83;1.73;;;23.70;42.50;;;;;;5036616;28;20454;-69
2023/06/15 11:07:51;;;;;;;1.80;1.70;;;23.70;42.50;;;;;;5034449;28;20887;-69
2023/06/15 11:10:20;;;;;;;1.70;1.60;;;23.60;42.40;;;;;;5039077;28;20213;-70
2023/06/15 11:12:47;;;;;;;1.93;1.83;;;23.70;42.50;;;;;;5040711;28;20557;-70
2023/06/15 11:15:14;;;;;;;2.00;1.90;;;23.70;42.50;;;;;;5039622;28;21077;-69
2023/06/15 11:17:58;;;;;;;1.90;1.80;;;23.70;42.50;;;;;;5041671;28;20803;-70
2023/06/15 11:20:39;;;;;;;2.00;1.90;;;23.70;42.50;;;;;;5041939;28;20459;-70
2023/06/15 11:23:29;;;;;;;1.97;1.87;;;23.70;42.50;;;;;;5040374;28;20445;-70
2023/06/15 11:25:55;;;;;;;1.80;1.70;;;23.70;42.50;;;;;;5043239;28;20858;-70
2023/06/15 11:28:24;;;;;;;1.70;1.60;;;23.70;42.50;;;;;;5044216;28;20818;-70
2023/06/15 11:30:51;;;;;;;2.20;2.10;;;23.70;42.50;;;;;;5037458;28;20966;-70
2023/06/15 11:33:37;;;;;;;2.20;2.00;;;23.70;42.50;;;;;;5035925;28;21023;-70
2023/06/15 11:36:05;;;;;;;2.00;1.90;;;23.70;42.50;;;;;;5042775;28;21086;-70
2023/06/15 11:38:32;;;;;;;1.97;1.87;;;23.60;42.40;;;;;;5041543;28;21004;-69
2023/06/15 11:41:02;;;;;;;2.00;1.90;;;23.70;42.50;;;;;;5043629;28;20471;-70
2023/06/15 11:43:46;;;;;;;1.93;1.80;;;23.70;42.50;;;;;;5040743;28;20452;-70
2023/06/15 11:46:13;;;;;;;1.90;1.80;;;23.70;42.50;;;;;;5041458;28;21088;-70
2023/06/15 11:48:39;;;;;;;1.97;1.87;;;23.70;42.50;;;;;;5041465;28;21103;-70
2023/06/15 11:51:09;;;;;;;1.70;1.60;;;23.70;42.50;;;;;;5042951;28;20813;-70
2023/06/15 11:53:39;;;;;;;2.00;1.90;;;23.70;42.50;;;;;;5041676;28;21278;-70
2023/06/15 11:56:12;;;;;;;1.87;1.77;;;23.70;42.50;;;;;;5039933;28;21180;-70
2023/06/15 11:58:39;;;;;;;1.97;1.87;;;23.70;42.50;;;;;;5041483;28;20997;-70
2023/06/15 12:01:06;;;;;;;2.10;2.00;;;23.70;42.50;;;;;;5041481;28;20474;-69
2023/06/15 12:03:32;;;;;;;1.87;1.77;;;23.70;42.50;;;;;;5039311;28;20495;-70
2023/06/15 12:05:58;;;;;;;1.90;1.80;;;23.70;42.50;;;;;;5040962;28;20463;-70
2023/06/15 12:08:26;;;;;;;2.07;1.97;;;23.70;42.50;;;;;;5037834;28;21031;-70
2023/06/15 12:10:53;;;;;;;1.80;1.70;;;23.70;42.50;;;;;;5042798;28;20560;-69
2023/06/15 12:13:18;;;;;;;2.20;2.10;;;23.70;42.50;;;;;;5038186;28;20467;-69
2023/06/15 12:15:47;;;;;;;1.90;1.80;;;23.70;42.50;;;;;;5038650;28;20443;-70
2023/06/15 12:18:13;;;;;;;2.10;2.00;;;23.70;42.50;;;;;;5053880;28;20245;-70
2023/06/15 12:20:39;;;;;;;1.80;1.70;;;23.70;42.50;;;;;;5042908;28;20816;-70
2023/06/15 12:23:05;;;;;;;2.00;1.90;;;23.70;42.50;;;;;;5039989;28;20279;-70
2023/06/15 12:25:45;;;;;;;2.00;1.90;;;23.70;42.50;;;;;;5040255;28;23234;-70
2023/06/15 12:28:18;;;;;;;2.00;1.90;;;23.70;42.50;;;;;;5040040;28;20251;-70
2023/06/15 12:30:48;;;;;;;2.20;2.10;;;23.70;42.50;;;;;;5042310;28;20858;-70
2023/06/15 12:33:34;;;;;;;2.00;1.90;;;23.70;42.50;;;;;;5038805;28;20447;-70
2023/06/15 12:36:01;;;;;;;2.00;1.90;;;23.80;42.60;;;;;;5040210;28;20872;-69
2023/06/15 12:38:29;;;;;;;2.10;2.00;;;23.70;42.50;;;;;;5035807;28;20557;-70
2023/06/15 12:40:56;;;;;;;2.00;1.90;;;23.70;42.50;;;;;;5040331;28;20990;-70
2023/06/15 12:43:25;;;;;;;2.43;1.80;;;23.70;42.50;;;;;;5038589;28;20451;-70
2023/06/15 12:45:51;;;;;;;2.07;1.97;;;23.70;42.50;;;;;;5038256;28;20474;-70
2023/06/15 12:48:16;;;;;;;2.00;1.90;;;23.70;42.50;;;;;;5042601;28;20447;-70
2023/06/15 12:50:43;;;;;;;1.87;1.77;;;23.70;42.50;;;;;;5042553;28;20222;-70